sensor_id;sensor_type;location;lat;lon;timestamp;P1;durP1;ratioP1;P2;durP2;ratioP2
13849;SDS011;6995;52.618;13.488;2024-01-10T00:02:25;59.37;;;49.37;;
13849;SDS011;6995;52.618;13.488;2024-01-10T00:04:52;53.13;;;47.00;;
13849;SDS011;6995;52.618;13.488;2024-01-10T00:07:18;63.33;;;55.30;;
13849;SDS011;6995;52.618;13.488;2024-01-10T00:09:43;58.20;;;48.00;;
13849;SDS011;6995;52.618;13.488;2024-01-10T00:12:10;62.73;;;46.77;;
13849;SDS011;6995;52.618;13.488;2024-01-10T00:14:36;59.30;;;44.83;;
13849;SDS011;6995;52.618;13.488;2024-01-10T00:17:03;51.63;;;45.97;;
13849;SDS011;6995;52.618;13.488;2024-01-10T00:19:29;58.13;;;48.20;;
13849;SDS011;6995;52.618;13.488;2024-01-10T00:21:55;59.03;;;47.83;;
13849;SDS011;6995;52.618;13.488;2024-01-10T00:24:21;65.67;;;49.10;;
13849;SDS011;6995;52.618;13.488;2024-01-10T00:26:46;57.60;;;47.37;;
13849;SDS011;6995;52.618;13.488;2024-01-10T00:29:12;56.53;;;50.40;;
13849;SDS011;6995;52.618;13.488;2024-01-10T00:31:38;62.57;;;52.43;;
13849;SDS011;6995;52.618;13.488;2024-01-10T00:34:04;55.20;;;45.63;;
13849;SDS011;6995;52.618;13.488;2024-01-10T00:36:30;59.37;;;47.50;;
13849;SDS011;6995;52.618;13.488;2024-01-10T00:38:55;62.43;;;50.23;;
13849;SDS011;6995;52.618;13.488;2024-01-10T00:41:22;53.67;;;47.90;;
13849;SDS011;6995;52.618;13.488;2024-01-10T00:43:48;65.67;;;49.50;;
13849;SDS011;6995;52.618;13.488;2024-01-10T00:46:13;60.00;;;46.73;;
13849;SDS011;6995;52.618;13.488;2024-01-10T00:48:39;58.60;;;45.10;;
13849;SDS011;6995;52.618;13.488;2024-01-10T00:51:05;57.30;;;45.73;;
13849;SDS011;6995;52.618;13.488;2024-01-10T00:53:34;61.90;;;50.87;;
13849;SDS011;6995;52.618;13.488;2024-01-10T00:56:00;63.50;;;48.17;;
13849;SDS011;6995;52.618;13.488;2024-01-10T00:58:25;57.43;;;45.03;;
13849;SDS011;6995;52.618;13.488;2024-01-10T01:00:51;58.10;;;47.67;;
13849;SDS011;6995;52.618;13.488;2024-01-10T01:03:16;56.70;;;46.17;;
13849;SDS011;6995;52.618;13.488;2024-01-10T01:05:42;63.17;;;50.23;;
13849;SDS011;6995;52.618;13.488;2024-01-10T01:08:08;56.27;;;47.97;;
13849;SDS011;6995;52.618;13.488;2024-01-10T01:10:34;58.23;;;49.13;;
13849;SDS011;6995;52.618;13.488;2024-01-10T01:13:02;74.77;;;49.43;;
13849;SDS011;6995;52.618;13.488;2024-01-10T01:15:28;61.87;;;46.20;;
13849;SDS011;6995;52.618;13.488;2024-01-10T01:17:53;67.90;;;49.70;;
13849;SDS011;6995;52.618;13.488;2024-01-10T01:20:19;64.70;;;50.43;;
13849;SDS011;6995;52.618;13.488;2024-01-10T01:22:44;72.47;;;50.60;;
13849;SDS011;6995;52.618;13.488;2024-01-10T01:25:11;70.73;;;49.97;;
13849;SDS011;6995;52.618;13.488;2024-01-10T01:27:37;66.50;;;47.77;;
13849;SDS011;6995;52.618;13.488;2024-01-10T01:30:02;68.97;;;55.17;;
13849;SDS011;6995;52.618;13.488;2024-01-10T01:32:28;66.47;;;47.33;;
13849;SDS011;6995;52.618;13.488;2024-01-10T01:34:54;64.70;;;50.83;;
13849;SDS011;6995;52.618;13.488;2024-01-10T01:37:21;68.20;;;51.40;;
13849;SDS011;6995;52.618;13.488;2024-01-10T01:39:46;68.10;;;48.40;;
13849;SDS011;6995;52.618;13.488;2024-01-10T01:42:12;67.57;;;47.20;;
13849;SDS011;6995;52.618;13.488;2024-01-10T01:44:38;74.53;;;51.50;;
13849;SDS011;6995;52.618;13.488;2024-01-10T01:47:03;72.00;;;48.63;;
13849;SDS011;6995;52.618;13.488;2024-01-10T01:49:29;64.47;;;48.53;;
13849;SDS011;6995;52.618;13.488;2024-01-10T01:51:55;69.53;;;48.50;;
13849;SDS011;6995;52.618;13.488;2024-01-10T01:54:21;66.57;;;47.90;;
13849;SDS011;6995;52.618;13.488;2024-01-10T01:56:47;63.60;;;47.07;;
13849;SDS011;6995;52.618;13.488;2024-01-10T01:59:14;65.33;;;47.30;;
13849;SDS011;6995;52.618;13.488;2024-01-10T02:01:40;78.73;;;54.47;;
13849;SDS011;6995;52.618;13.488;2024-01-10T02:04:06;79.03;;;52.03;;
13849;SDS011;6995;52.618;13.488;2024-01-10T02:06:32;78.67;;;54.17;;
13849;SDS011;6995;52.618;13.488;2024-01-10T02:08:57;74.77;;;54.50;;
13849;SDS011;6995;52.618;13.488;2024-01-10T02:11:24;75.17;;;59.33;;
13849;SDS011;6995;52.618;13.488;2024-01-10T02:13:50;69.87;;;52.97;;
13849;SDS011;6995;52.618;13.488;2024-01-10T02:16:19;88.20;;;51.70;;
13849;SDS011;6995;52.618;13.488;2024-01-10T02:18:45;77.13;;;50.07;;
13849;SDS011;6995;52.618;13.488;2024-01-10T02:21:11;77.30;;;52.40;;
13849;SDS011;6995;52.618;13.488;2024-01-10T02:23:36;73.73;;;50.97;;
13849;SDS011;6995;52.618;13.488;2024-01-10T02:26:02;71.03;;;56.07;;
13849;SDS011;6995;52.618;13.488;2024-01-10T02:28:28;71.33;;;47.93;;
13849;SDS011;6995;52.618;13.488;2024-01-10T02:30:54;76.97;;;50.33;;
13849;SDS011;6995;52.618;13.488;2024-01-10T02:33:20;69.83;;;49.50;;
13849;SDS011;6995;52.618;13.488;2024-01-10T02:35:46;76.70;;;52.80;;
13849;SDS011;6995;52.618;13.488;2024-01-10T02:38:12;72.57;;;50.33;;
13849;SDS011;6995;52.618;13.488;2024-01-10T02:40:38;70.30;;;52.27;;
13849;SDS011;6995;52.618;13.488;2024-01-10T02:43:04;72.70;;;50.90;;
13849;SDS011;6995;52.618;13.488;2024-01-10T02:45:32;71.27;;;54.27;;
13849;SDS011;6995;52.618;13.488;2024-01-10T02:47:57;73.90;;;54.87;;
13849;SDS011;6995;52.618;13.488;2024-01-10T02:50:23;81.80;;;58.27;;
13849;SDS011;6995;52.618;13.488;2024-01-10T02:52:48;84.17;;;74.40;;
13849;SDS011;6995;52.618;13.488;2024-01-10T02:55:14;71.83;;;54.83;;
13849;SDS011;6995;52.618;13.488;2024-01-10T02:57:40;72.03;;;51.17;;
13849;SDS011;6995;52.618;13.488;2024-01-10T03:00:05;95.43;;;85.80;;
13849;SDS011;6995;52.618;13.488;2024-01-10T03:02:32;80.67;;;62.30;;
13849;SDS011;6995;52.618;13.488;2024-01-10T03:04:58;84.03;;;74.33;;
13849;SDS011;6995;52.618;13.488;2024-01-10T03:07:24;86.23;;;76.97;;
13849;SDS011;6995;52.618;13.488;2024-01-10T03:09:50;74.23;;;55.43;;
13849;SDS011;6995;52.618;13.488;2024-01-10T03:12:16;76.27;;;68.07;;
13849;SDS011;6995;52.618;13.488;2024-01-10T03:14:43;69.03;;;57.10;;
13849;SDS011;6995;52.618;13.488;2024-01-10T03:17:09;81.70;;;61.57;;
13849;SDS011;6995;52.618;13.488;2024-01-10T03:19:35;71.67;;;51.80;;
13849;SDS011;6995;52.618;13.488;2024-01-10T03:22:02;72.60;;;56.33;;
13849;SDS011;6995;52.618;13.488;2024-01-10T03:24:28;71.90;;;57.20;;
13849;SDS011;6995;52.618;13.488;2024-01-10T03:26:53;72.53;;;53.30;;
13849;SDS011;6995;52.618;13.488;2024-01-10T03:29:19;80.93;;;63.53;;
13849;SDS011;6995;52.618;13.488;2024-01-10T03:31:45;74.57;;;57.33;;
13849;SDS011;6995;52.618;13.488;2024-01-10T03:34:10;76.20;;;54.77;;
13849;SDS011;6995;52.618;13.488;2024-01-10T03:36:36;78.33;;;55.47;;
13849;SDS011;6995;52.618;13.488;2024-01-10T03:39:01;78.10;;;58.03;;
13849;SDS011;6995;52.618;13.488;2024-01-10T03:41:27;83.37;;;57.37;;
13849;SDS011;6995;52.618;13.488;2024-01-10T03:43:53;79.20;;;62.43;;
13849;SDS011;6995;52.618;13.488;2024-01-10T03:46:19;67.63;;;55.70;;
13849;SDS011;6995;52.618;13.488;2024-01-10T03:48:45;75.73;;;55.87;;
13849;SDS011;6995;52.618;13.488;2024-01-10T03:51:17;75.00;;;57.23;;
13849;SDS011;6995;52.618;13.488;2024-01-10T03:53:44;76.93;;;59.07;;
13849;SDS011;6995;52.618;13.488;2024-01-10T03:56:11;78.83;;;55.27;;
13849;SDS011;6995;52.618;13.488;2024-01-10T03:58:37;72.67;;;59.53;;
13849;SDS011;6995;52.618;13.488;2024-01-10T04:01:06;74.37;;;52.77;;
13849;SDS011;6995;52.618;13.488;2024-01-10T04:03:32;75.13;;;54.13;;
13849;SDS011;6995;52.618;13.488;2024-01-10T04:06:01;72.77;;;61.80;;
13849;SDS011;6995;52.618;13.488;2024-01-10T04:08:27;77.63;;;57.87;;
13849;SDS011;6995;52.618;13.488;2024-01-10T04:10:57;76.87;;;55.70;;
13849;SDS011;6995;52.618;13.488;2024-01-10T04:13:23;66.70;;;54.03;;
13849;SDS011;6995;52.618;13.488;2024-01-10T04:15:49;79.13;;;58.47;;
13849;SDS011;6995;52.618;13.488;2024-01-10T04:18:17;85.90;;;68.17;;
13849;SDS011;6995;52.618;13.488;2024-01-10T04:20:43;76.63;;;55.57;;
13849;SDS011;6995;52.618;13.488;2024-01-10T04:23:09;78.17;;;60.33;;
13849;SDS011;6995;52.618;13.488;2024-01-10T04:25:34;76.03;;;53.67;;
13849;SDS011;6995;52.618;13.488;2024-01-10T04:28:00;77.83;;;58.67;;
13849;SDS011;6995;52.618;13.488;2024-01-10T04:30:26;80.67;;;56.87;;
13849;SDS011;6995;52.618;13.488;2024-01-10T04:32:52;76.50;;;55.43;;
13849;SDS011;6995;52.618;13.488;2024-01-10T04:35:18;81.73;;;57.77;;
13849;SDS011;6995;52.618;13.488;2024-01-10T04:37:43;76.53;;;54.57;;
13849;SDS011;6995;52.618;13.488;2024-01-10T04:40:10;81.87;;;62.93;;
13849;SDS011;6995;52.618;13.488;2024-01-10T04:42:36;75.67;;;55.90;;
13849;SDS011;6995;52.618;13.488;2024-01-10T04:45:02;79.43;;;56.30;;
13849;SDS011;6995;52.618;13.488;2024-01-10T04:47:29;74.77;;;56.83;;
13849;SDS011;6995;52.618;13.488;2024-01-10T04:49:55;71.97;;;54.20;;
13849;SDS011;6995;52.618;13.488;2024-01-10T04:52:20;75.33;;;55.73;;
13849;SDS011;6995;52.618;13.488;2024-01-10T04:54:46;70.43;;;53.60;;
13849;SDS011;6995;52.618;13.488;2024-01-10T04:57:13;68.20;;;55.10;;
13849;SDS011;6995;52.618;13.488;2024-01-10T04:59:39;76.87;;;64.63;;
13849;SDS011;6995;52.618;13.488;2024-01-10T05:02:06;76.77;;;56.70;;
13849;SDS011;6995;52.618;13.488;2024-01-10T05:04:32;74.67;;;55.67;;
13849;SDS011;6995;52.618;13.488;2024-01-10T05:06:58;75.60;;;55.90;;
13849;SDS011;6995;52.618;13.488;2024-01-10T05:09:24;76.40;;;52.77;;
13849;SDS011;6995;52.618;13.488;2024-01-10T05:11:50;77.90;;;59.70;;
13849;SDS011;6995;52.618;13.488;2024-01-10T05:14:18;73.60;;;59.00;;
13849;SDS011;6995;52.618;13.488;2024-01-10T05:16:45;73.00;;;56.53;;
13849;SDS011;6995;52.618;13.488;2024-01-10T05:19:12;69.90;;;54.53;;
13849;SDS011;6995;52.618;13.488;2024-01-10T05:21:38;79.00;;;66.83;;
13849;SDS011;6995;52.618;13.488;2024-01-10T05:24:04;77.90;;;57.57;;
13849;SDS011;6995;52.618;13.488;2024-01-10T05:26:31;75.10;;;61.30;;
13849;SDS011;6995;52.618;13.488;2024-01-10T05:28:57;76.10;;;58.33;;
13849;SDS011;6995;52.618;13.488;2024-01-10T05:31:22;71.17;;;63.10;;
13849;SDS011;6995;52.618;13.488;2024-01-10T05:33:48;74.53;;;63.03;;
13849;SDS011;6995;52.618;13.488;2024-01-10T05:36:15;76.23;;;64.10;;
13849;SDS011;6995;52.618;13.488;2024-01-10T05:38:41;72.53;;;60.53;;
13849;SDS011;6995;52.618;13.488;2024-01-10T05:41:07;70.17;;;53.63;;
13849;SDS011;6995;52.618;13.488;2024-01-10T05:43:32;68.10;;;54.57;;
13849;SDS011;6995;52.618;13.488;2024-01-10T05:45:59;71.37;;;54.87;;
13849;SDS011;6995;52.618;13.488;2024-01-10T05:48:24;100.90;;;63.27;;
13849;SDS011;6995;52.618;13.488;2024-01-10T05:50:52;105.20;;;72.23;;
13849;SDS011;6995;52.618;13.488;2024-01-10T05:53:17;103.43;;;70.33;;
13849;SDS011;6995;52.618;13.488;2024-01-10T05:55:44;92.23;;;58.70;;
13849;SDS011;6995;52.618;13.488;2024-01-10T05:58:10;97.73;;;62.57;;
13849;SDS011;6995;52.618;13.488;2024-01-10T06:00:36;99.87;;;63.73;;
13849;SDS011;6995;52.618;13.488;2024-01-10T06:03:04;93.60;;;65.43;;
13849;SDS011;6995;52.618;13.488;2024-01-10T06:05:33;88.50;;;63.87;;
13849;SDS011;6995;52.618;13.488;2024-01-10T06:07:59;84.60;;;57.07;;
13849;SDS011;6995;52.618;13.488;2024-01-10T06:10:25;90.20;;;61.00;;
13849;SDS011;6995;52.618;13.488;2024-01-10T06:12:50;96.03;;;62.77;;
13849;SDS011;6995;52.618;13.488;2024-01-10T06:15:16;80.27;;;59.33;;
13849;SDS011;6995;52.618;13.488;2024-01-10T06:17:43;84.67;;;63.20;;
13849;SDS011;6995;52.618;13.488;2024-01-10T06:20:09;76.87;;;55.70;;
13849;SDS011;6995;52.618;13.488;2024-01-10T06:22:35;78.90;;;63.37;;
13849;SDS011;6995;52.618;13.488;2024-01-10T06:25:00;84.20;;;63.13;;
13849;SDS011;6995;52.618;13.488;2024-01-10T06:27:27;84.20;;;56.03;;
13849;SDS011;6995;52.618;13.488;2024-01-10T06:29:52;86.17;;;63.53;;
13849;SDS011;6995;52.618;13.488;2024-01-10T06:32:19;74.80;;;56.03;;
13849;SDS011;6995;52.618;13.488;2024-01-10T06:34:44;76.60;;;62.33;;
13849;SDS011;6995;52.618;13.488;2024-01-10T06:37:10;79.67;;;55.87;;
13849;SDS011;6995;52.618;13.488;2024-01-10T06:39:37;81.60;;;58.40;;
13849;SDS011;6995;52.618;13.488;2024-01-10T06:42:02;83.37;;;74.43;;
13849;SDS011;6995;52.618;13.488;2024-01-10T06:44:31;87.70;;;60.57;;
13849;SDS011;6995;52.618;13.488;2024-01-10T06:46:58;84.33;;;57.83;;
13849;SDS011;6995;52.618;13.488;2024-01-10T06:49:28;77.10;;;52.20;;
13849;SDS011;6995;52.618;13.488;2024-01-10T06:51:53;78.97;;;64.47;;
13849;SDS011;6995;52.618;13.488;2024-01-10T06:54:19;71.93;;;56.80;;
13849;SDS011;6995;52.618;13.488;2024-01-10T06:56:45;88.00;;;58.83;;
13849;SDS011;6995;52.618;13.488;2024-01-10T06:59:12;76.80;;;58.30;;
13849;SDS011;6995;52.618;13.488;2024-01-10T07:01:38;81.30;;;61.93;;
13849;SDS011;6995;52.618;13.488;2024-01-10T07:04:04;82.40;;;68.20;;
13849;SDS011;6995;52.618;13.488;2024-01-10T07:06:30;80.27;;;66.00;;
13849;SDS011;6995;52.618;13.488;2024-01-10T07:08:56;85.33;;;72.57;;
13849;SDS011;6995;52.618;13.488;2024-01-10T07:11:23;76.87;;;58.00;;
13849;SDS011;6995;52.618;13.488;2024-01-10T07:13:49;78.47;;;63.83;;
13849;SDS011;6995;52.618;13.488;2024-01-10T07:16:14;89.50;;;72.03;;
13849;SDS011;6995;52.618;13.488;2024-01-10T07:18:41;76.67;;;57.20;;
13849;SDS011;6995;52.618;13.488;2024-01-10T07:21:08;71.13;;;59.53;;
13849;SDS011;6995;52.618;13.488;2024-01-10T07:23:34;89.33;;;57.80;;
13849;SDS011;6995;52.618;13.488;2024-01-10T07:26:00;74.70;;;57.97;;
13849;SDS011;6995;52.618;13.488;2024-01-10T07:28:26;73.40;;;54.50;;
13849;SDS011;6995;52.618;13.488;2024-01-10T07:30:51;77.87;;;60.07;;
13849;SDS011;6995;52.618;13.488;2024-01-10T07:35:57;95.20;;;75.53;;
13849;SDS011;6995;52.618;13.488;2024-01-10T07:38:24;81.13;;;68.40;;
13849;SDS011;6995;52.618;13.488;2024-01-10T07:40:49;93.07;;;67.37;;
13849;SDS011;6995;52.618;13.488;2024-01-10T07:43:15;73.80;;;57.03;;
13849;SDS011;6995;52.618;13.488;2024-01-10T07:45:41;92.83;;;59.33;;
13849;SDS011;6995;52.618;13.488;2024-01-10T07:48:06;91.30;;;59.63;;
13849;SDS011;6995;52.618;13.488;2024-01-10T07:50:32;79.70;;;59.73;;
13849;SDS011;6995;52.618;13.488;2024-01-10T07:52:58;81.70;;;62.00;;
13849;SDS011;6995;52.618;13.488;2024-01-10T07:55:24;80.40;;;67.30;;
13849;SDS011;6995;52.618;13.488;2024-01-10T07:57:50;84.27;;;58.47;;
13849;SDS011;6995;52.618;13.488;2024-01-10T08:00:16;84.83;;;61.90;;
13849;SDS011;6995;52.618;13.488;2024-01-10T08:02:45;81.33;;;59.37;;
13849;SDS011;6995;52.618;13.488;2024-01-10T08:05:11;81.30;;;62.73;;
13849;SDS011;6995;52.618;13.488;2024-01-10T08:07:37;83.23;;;63.53;;
13849;SDS011;6995;52.618;13.488;2024-01-10T08:10:04;77.43;;;68.23;;
13849;SDS011;6995;52.618;13.488;2024-01-10T08:12:38;87.73;;;78.67;;
13849;SDS011;6995;52.618;13.488;2024-01-10T08:15:06;91.17;;;81.53;;
13849;SDS011;6995;52.618;13.488;2024-01-10T08:17:32;86.03;;;66.97;;
13849;SDS011;6995;52.618;13.488;2024-01-10T08:19:58;120.63;;;109.63;;
13849;SDS011;6995;52.618;13.488;2024-01-10T08:22:25;138.13;;;126.03;;
13849;SDS011;6995;52.618;13.488;2024-01-10T08:24:51;143.47;;;132.50;;
13849;SDS011;6995;52.618;13.488;2024-01-10T08:27:17;117.57;;;107.20;;
13849;SDS011;6995;52.618;13.488;2024-01-10T08:29:43;93.17;;;83.33;;
13849;SDS011;6995;52.618;13.488;2024-01-10T08:32:09;86.03;;;76.30;;
13849;SDS011;6995;52.618;13.488;2024-01-10T08:34:35;80.00;;;67.47;;
13849;SDS011;6995;52.618;13.488;2024-01-10T08:37:01;76.77;;;63.17;;
13849;SDS011;6995;52.618;13.488;2024-01-10T08:39:27;88.90;;;72.37;;
13849;SDS011;6995;52.618;13.488;2024-01-10T08:41:55;89.73;;;63.13;;
13849;SDS011;6995;52.618;13.488;2024-01-10T08:44:24;86.27;;;64.03;;
13849;SDS011;6995;52.618;13.488;2024-01-10T08:46:49;81.67;;;63.20;;
13849;SDS011;6995;52.618;13.488;2024-01-10T08:49:18;81.77;;;65.43;;
13849;SDS011;6995;52.618;13.488;2024-01-10T08:51:43;88.90;;;66.43;;
13849;SDS011;6995;52.618;13.488;2024-01-10T08:54:11;89.23;;;78.77;;
13849;SDS011;6995;52.618;13.488;2024-01-10T08:56:41;86.13;;;61.00;;
13849;SDS011;6995;52.618;13.488;2024-01-10T08:59:09;82.77;;;57.13;;
13849;SDS011;6995;52.618;13.488;2024-01-10T09:01:35;84.53;;;58.20;;
13849;SDS011;6995;52.618;13.488;2024-01-10T09:04:03;81.40;;;55.00;;
13849;SDS011;6995;52.618;13.488;2024-01-10T09:06:32;76.57;;;56.43;;
13849;SDS011;6995;52.618;13.488;2024-01-10T09:08:58;85.20;;;63.20;;
13849;SDS011;6995;52.618;13.488;2024-01-10T09:11:24;82.90;;;60.07;;
13849;SDS011;6995;52.618;13.488;2024-01-10T09:13:50;90.77;;;68.67;;
13849;SDS011;6995;52.618;13.488;2024-01-10T09:16:16;74.33;;;59.00;;
13849;SDS011;6995;52.618;13.488;2024-01-10T09:18:43;84.47;;;64.60;;
13849;SDS011;6995;52.618;13.488;2024-01-10T09:21:09;80.00;;;61.73;;
13849;SDS011;6995;52.618;13.488;2024-01-10T09:23:35;77.70;;;54.40;;
13849;SDS011;6995;52.618;13.488;2024-01-10T09:26:02;77.07;;;54.97;;
13849;SDS011;6995;52.618;13.488;2024-01-10T09:28:27;74.83;;;54.37;;
13849;SDS011;6995;52.618;13.488;2024-01-10T09:30:53;79.17;;;63.57;;
13849;SDS011;6995;52.618;13.488;2024-01-10T09:33:19;84.60;;;63.20;;
13849;SDS011;6995;52.618;13.488;2024-01-10T09:35:45;75.20;;;55.60;;
13849;SDS011;6995;52.618;13.488;2024-01-10T09:38:10;78.83;;;55.13;;
13849;SDS011;6995;52.618;13.488;2024-01-10T09:40:36;81.43;;;57.63;;
13849;SDS011;6995;52.618;13.488;2024-01-10T09:43:05;76.80;;;57.30;;
13849;SDS011;6995;52.618;13.488;2024-01-10T09:45:35;68.83;;;53.93;;
13849;SDS011;6995;52.618;13.488;2024-01-10T09:48:11;69.57;;;54.80;;
13849;SDS011;6995;52.618;13.488;2024-01-10T09:50:38;70.27;;;52.87;;
13849;SDS011;6995;52.618;13.488;2024-01-10T09:55:34;73.90;;;56.40;;
13849;SDS011;6995;52.618;13.488;2024-01-10T09:58:04;67.63;;;53.23;;
13849;SDS011;6995;52.618;13.488;2024-01-10T10:00:36;74.90;;;56.53;;
13849;SDS011;6995;52.618;13.488;2024-01-10T10:03:03;63.50;;;48.33;;
13849;SDS011;6995;52.618;13.488;2024-01-10T10:05:32;68.80;;;52.80;;
13849;SDS011;6995;52.618;13.488;2024-01-10T10:08:02;65.43;;;49.30;;
13849;SDS011;6995;52.618;13.488;2024-01-10T10:10:31;67.77;;;51.77;;
13849;SDS011;6995;52.618;13.488;2024-01-10T10:12:57;61.23;;;51.07;;
13849;SDS011;6995;52.618;13.488;2024-01-10T10:15:24;59.33;;;49.07;;
13849;SDS011;6995;52.618;13.488;2024-01-10T10:17:53;66.00;;;51.10;;
13849;SDS011;6995;52.618;13.488;2024-01-10T10:20:26;64.43;;;56.43;;
13849;SDS011;6995;52.618;13.488;2024-01-10T10:25:28;65.97;;;52.80;;
13849;SDS011;6995;52.618;13.488;2024-01-10T10:27:56;67.60;;;49.13;;
13849;SDS011;6995;52.618;13.488;2024-01-10T10:30:22;73.10;;;52.20;;
13849;SDS011;6995;52.618;13.488;2024-01-10T10:32:48;65.57;;;54.27;;
13849;SDS011;6995;52.618;13.488;2024-01-10T10:35:14;60.90;;;50.70;;
13849;SDS011;6995;52.618;13.488;2024-01-10T10:37:40;63.10;;;53.23;;
13849;SDS011;6995;52.618;13.488;2024-01-10T10:40:06;68.83;;;54.50;;
13849;SDS011;6995;52.618;13.488;2024-01-10T10:42:34;63.50;;;48.27;;
13849;SDS011;6995;52.618;13.488;2024-01-10T10:45:06;64.43;;;50.93;;
13849;SDS011;6995;52.618;13.488;2024-01-10T10:47:36;61.97;;;48.23;;
13849;SDS011;6995;52.618;13.488;2024-01-10T10:50:04;68.00;;;49.73;;
13849;SDS011;6995;52.618;13.488;2024-01-10T10:52:31;62.33;;;48.27;;
13849;SDS011;6995;52.618;13.488;2024-01-10T10:54:58;68.67;;;53.00;;
13849;SDS011;6995;52.618;13.488;2024-01-10T10:57:27;69.73;;;51.50;;
13849;SDS011;6995;52.618;13.488;2024-01-10T10:59:56;60.80;;;51.40;;
13849;SDS011;6995;52.618;13.488;2024-01-10T11:02:23;57.37;;;47.20;;
13849;SDS011;6995;52.618;13.488;2024-01-10T11:04:53;63.00;;;48.77;;
13849;SDS011;6995;52.618;13.488;2024-01-10T11:07:23;56.57;;;50.40;;
13849;SDS011;6995;52.618;13.488;2024-01-10T11:09:49;52.80;;;47.17;;
13849;SDS011;6995;52.618;13.488;2024-01-10T11:18:50;53.83;;;45.47;;
13849;SDS011;6995;52.618;13.488;2024-01-10T11:21:50;56.10;;;43.90;;
13849;SDS011;6995;52.618;13.488;2024-01-10T11:24:46;44.97;;;40.17;;
13849;SDS011;6995;52.618;13.488;2024-01-10T11:30:10;48.90;;;41.30;;
13849;SDS011;6995;52.618;13.488;2024-01-10T11:39:23;43.67;;;36.97;;
13849;SDS011;6995;52.618;13.488;2024-01-10T11:41:49;45.53;;;41.07;;
13849;SDS011;6995;52.618;13.488;2024-01-10T11:46:46;51.43;;;41.00;;
13849;SDS011;6995;52.618;13.488;2024-01-10T11:49:15;48.33;;;41.50;;
13849;SDS011;6995;52.618;13.488;2024-01-10T11:51:52;48.13;;;40.63;;
13849;SDS011;6995;52.618;13.488;2024-01-10T11:57:14;48.80;;;44.13;;
13849;SDS011;6995;52.618;13.488;2024-01-10T11:59:44;47.47;;;42.33;;
13849;SDS011;6995;52.618;13.488;2024-01-10T12:02:10;45.00;;;40.43;;
13849;SDS011;6995;52.618;13.488;2024-01-10T12:04:37;47.23;;;40.93;;
13849;SDS011;6995;52.618;13.488;2024-01-10T12:07:03;46.43;;;41.83;;
13849;SDS011;6995;52.618;13.488;2024-01-10T12:09:32;43.00;;;38.37;;
13849;SDS011;6995;52.618;13.488;2024-01-10T12:12:02;45.60;;;40.63;;
13849;SDS011;6995;52.618;13.488;2024-01-10T12:14:28;45.27;;;40.77;;
13849;SDS011;6995;52.618;13.488;2024-01-10T12:16:54;44.13;;;39.53;;
13849;SDS011;6995;52.618;13.488;2024-01-10T12:19:21;45.27;;;40.77;;
13849;SDS011;6995;52.618;13.488;2024-01-10T12:21:48;46.07;;;41.20;;
13849;SDS011;6995;52.618;13.488;2024-01-10T12:24:14;47.23;;;39.87;;
13849;SDS011;6995;52.618;13.488;2024-01-10T12:26:43;47.33;;;40.33;;
13849;SDS011;6995;52.618;13.488;2024-01-10T12:29:10;47.13;;;42.33;;
13849;SDS011;6995;52.618;13.488;2024-01-10T12:31:36;49.37;;;40.60;;
13849;SDS011;6995;52.618;13.488;2024-01-10T12:34:03;48.27;;;43.40;;
13849;SDS011;6995;52.618;13.488;2024-01-10T12:36:31;46.43;;;38.27;;
13849;SDS011;6995;52.618;13.488;2024-01-10T12:38:57;48.27;;;43.10;;
13849;SDS011;6995;52.618;13.488;2024-01-10T12:41:23;52.10;;;46.87;;
13849;SDS011;6995;52.618;13.488;2024-01-10T12:43:52;50.60;;;43.03;;
13849;SDS011;6995;52.618;13.488;2024-01-10T12:46:19;47.63;;;42.63;;
13849;SDS011;6995;52.618;13.488;2024-01-10T12:48:45;46.63;;;41.67;;
13849;SDS011;6995;52.618;13.488;2024-01-10T12:51:19;45.87;;;41.07;;
13849;SDS011;6995;52.618;13.488;2024-01-10T12:53:45;46.37;;;40.27;;
13849;SDS011;6995;52.618;13.488;2024-01-10T12:56:11;40.63;;;36.27;;
13849;SDS011;6995;52.618;13.488;2024-01-10T12:58:39;44.00;;;39.33;;
13849;SDS011;6995;52.618;13.488;2024-01-10T13:01:07;42.17;;;37.87;;
13849;SDS011;6995;52.618;13.488;2024-01-10T13:03:34;45.87;;;41.17;;
13849;SDS011;6995;52.618;13.488;2024-01-10T13:06:00;44.80;;;39.90;;
13849;SDS011;6995;52.618;13.488;2024-01-10T13:08:26;47.83;;;42.63;;
13849;SDS011;6995;52.618;13.488;2024-01-10T13:10:52;44.47;;;39.73;;
13849;SDS011;6995;52.618;13.488;2024-01-10T13:13:18;47.17;;;42.37;;
13849;SDS011;6995;52.618;13.488;2024-01-10T13:15:46;48.10;;;42.93;;
13849;SDS011;6995;52.618;13.488;2024-01-10T13:18:14;49.83;;;45.20;;
13849;SDS011;6995;52.618;13.488;2024-01-10T13:20:44;47.30;;;42.13;;
13849;SDS011;6995;52.618;13.488;2024-01-10T13:23:10;49.73;;;44.07;;
13849;SDS011;6995;52.618;13.488;2024-01-10T13:25:36;50.97;;;45.87;;
13849;SDS011;6995;52.618;13.488;2024-01-10T13:28:05;47.10;;;42.20;;
13849;SDS011;6995;52.618;13.488;2024-01-10T13:30:33;49.07;;;43.43;;
13849;SDS011;6995;52.618;13.488;2024-01-10T13:32:59;47.47;;;42.83;;
13849;SDS011;6995;52.618;13.488;2024-01-10T13:35:24;53.90;;;47.27;;
13849;SDS011;6995;52.618;13.488;2024-01-10T13:37:50;49.50;;;43.90;;
13849;SDS011;6995;52.618;13.488;2024-01-10T13:40:16;51.43;;;46.13;;
13849;SDS011;6995;52.618;13.488;2024-01-10T13:42:44;46.87;;;41.90;;
13849;SDS011;6995;52.618;13.488;2024-01-10T13:45:10;50.07;;;44.57;;
13849;SDS011;6995;52.618;13.488;2024-01-10T13:47:42;50.30;;;44.90;;
13849;SDS011;6995;52.618;13.488;2024-01-10T13:50:08;51.47;;;46.30;;
13849;SDS011;6995;52.618;13.488;2024-01-10T13:52:34;50.33;;;45.23;;
13849;SDS011;6995;52.618;13.488;2024-01-10T13:55:21;49.60;;;44.33;;
13849;SDS011;6995;52.618;13.488;2024-01-10T14:01:17;55.10;;;49.80;;
13849;SDS011;6995;52.618;13.488;2024-01-10T14:07:04;52.17;;;45.03;;
13849;SDS011;6995;52.618;13.488;2024-01-10T14:12:29;53.07;;;47.53;;
13849;SDS011;6995;52.618;13.488;2024-01-10T14:15:05;50.57;;;45.37;;
13849;SDS011;6995;52.618;13.488;2024-01-10T14:17:40;50.40;;;45.13;;
13849;SDS011;6995;52.618;13.488;2024-01-10T14:20:09;50.93;;;45.63;;
13849;SDS011;6995;52.618;13.488;2024-01-10T14:23:01;53.47;;;46.30;;
13849;SDS011;6995;52.618;13.488;2024-01-10T14:26:15;51.10;;;42.23;;
13849;SDS011;6995;52.618;13.488;2024-01-10T14:28:44;52.67;;;47.47;;
13849;SDS011;6995;52.618;13.488;2024-01-10T14:31:19;51.40;;;46.20;;
13849;SDS011;6995;52.618;13.488;2024-01-10T14:34:00;49.67;;;44.60;;
13849;SDS011;6995;52.618;13.488;2024-01-10T14:36:29;50.37;;;44.93;;
13849;SDS011;6995;52.618;13.488;2024-01-10T14:38:57;49.87;;;44.40;;
13849;SDS011;6995;52.618;13.488;2024-01-10T14:41:24;46.70;;;41.70;;
13849;SDS011;6995;52.618;13.488;2024-01-10T14:44:11;49.33;;;43.47;;
13849;SDS011;6995;52.618;13.488;2024-01-10T14:46:43;46.83;;;39.87;;
13849;SDS011;6995;52.618;13.488;2024-01-10T14:49:08;49.57;;;44.57;;
13849;SDS011;6995;52.618;13.488;2024-01-10T14:51:49;56.27;;;45.60;;
13849;SDS011;6995;52.618;13.488;2024-01-10T14:56:57;58.97;;;44.83;;
13849;SDS011;6995;52.618;13.488;2024-01-10T15:02:46;59.87;;;47.63;;
13849;SDS011;6995;52.618;13.488;2024-01-10T15:05:15;64.50;;;56.17;;
13849;SDS011;6995;52.618;13.488;2024-01-10T15:07:48;62.50;;;50.17;;